Time;durP1;ratioP1;P1;durP2;ratioP2;P2;SDS_P1;SDS_P2;PMS_P1;PMS_P2;Temp;Humidity;BMP_temperature;BMP_pressure;BME280_temperature;BME280_humidity;BME280_pressure;Samples;Min_cycle;Max_cycle;Signal;HPM_P1;HPM_P2
2023/10/01 00:01:46;;;;;;;10.18;4.28;;;;;;;-143.29;100.00;62188.47;5055801;28;20422;-90
2023/10/01 00:04:11;;;;;;;7.57;4.47;;;;;;;-143.29;100.00;62188.47;5056505;28;20122;-91
2023/10/01 00:06:38;;;;;;;13.07;5.00;;;;;;;-143.29;100.00;62188.47;5074286;28;20025;-91
2023/10/01 00:09:07;;;;;;;14.00;4.78;;;;;;;-143.29;100.00;62188.47;5056395;28;20086;-90
2023/10/01 00:11:34;;;;;;;11.73;4.93;;;;;;;-143.29;100.00;62188.47;5073860;28;20059;-92
2023/10/01 00:13:59;;;;;;;8.57;4.28;;;;;;;-143.29;100.00;62188.47;5074295;28;20029;-90
2023/10/01 00:16:25;;;;;;;12.93;4.43;;;;;;;-143.29;100.00;62188.47;5074190;28;20355;-91
2023/10/01 00:18:51;;;;;;;13.07;4.88;;;;;;;-143.29;100.00;62188.47;5074137;28;20028;-91
2023/10/01 00:21:17;;;;;;;11.80;4.38;;;;;;;-143.29;100.00;62188.47;5056124;28;20016;-91
2023/10/01 00:23:43;;;;;;;12.13;4.55;;;;;;;-143.29;100.00;62188.47;5073740;28;20162;-90
2023/10/01 00:26:10;;;;;;;8.65;4.63;;;;;;;-143.29;100.00;62188.47;5073861;28;20115;-91
2023/10/01 00:28:35;;;;;;;10.23;4.38;;;;;;;-143.29;100.00;62188.47;5073784;28;20012;-91
2023/10/01 00:31:01;;;;;;;15.65;5.82;;;;;;;-143.29;100.00;62188.47;5073811;28;20040;-91
2023/10/01 00:33:27;;;;;;;9.85;4.90;;;;;;;-143.29;100.00;62188.47;5073716;28;20058;-91
2023/10/01 00:35:54;;;;;;;10.20;5.00;;;;;;;-143.29;100.00;62188.47;5073490;28;20111;-91
2023/10/01 00:38:20;;;;;;;13.43;5.00;;;;;;;-143.29;100.00;62188.47;5073759;28;20103;-90
2023/10/01 00:40:46;;;;;;;10.55;4.10;;;;;;;-143.29;100.00;62188.47;5055677;28;20534;-90
2023/10/01 00:43:12;;;;;;;10.88;4.88;;;;;;;-143.29;100.00;62188.47;5055679;28;20533;-91
2023/10/01 00:45:38;;;;;;;8.90;4.50;;;;;;;-143.29;100.00;62188.47;5055665;28;20593;-91
2023/10/01 00:48:06;;;;;;;10.02;4.30;;;;;;;-143.29;100.00;62188.47;5055529;28;20194;-90
2023/10/01 00:50:32;;;;;;;8.35;4.05;;;;;;;-143.29;100.00;62188.47;5073328;28;20111;-90
2023/10/01 00:52:58;;;;;;;9.45;3.97;;;;;;;-143.29;100.00;62188.47;5073410;28;20108;-90
2023/10/01 00:55:24;;;;;;;12.20;3.65;;;;;;;-143.29;100.00;62188.47;5055496;28;20025;-91
2023/10/01 00:57:53;;;;;;;9.38;3.65;;;;;;;-143.29;100.00;62188.47;5073476;28;20024;-90
2023/10/01 01:00:19;;;;;;;9.10;4.00;;;;;;;-143.29;100.00;62188.47;5055324;28;20032;-92
2023/10/01 01:05:41;;;;;;;9.65;3.80;;;;;;;-143.29;100.00;62188.47;5073334;28;20048;-91
2023/10/01 01:08:54;;;;;;;11.35;4.25;;;;;;;-143.29;100.00;62188.47;5073186;28;20024;-91
2023/10/01 01:10:54;;;;;;;11.73;3.72;;;;;;;-143.29;100.00;62188.47;5058556;28;20047;-92
2023/10/01 01:13:23;;;;;;;13.60;3.67;;;;;;;-143.29;100.00;62188.47;5072707;28;20024;-91
2023/10/01 01:15:51;;;;;;;6.55;3.33;;;;;;;-143.29;100.00;62188.47;5073090;28;20017;-91
2023/10/01 01:18:20;;;;;;;13.00;4.40;;;;;;;-143.29;100.00;62188.47;5072996;28;20413;-91
2023/10/01 01:20:46;;;;;;;14.77;4.13;;;;;;;-143.29;100.00;62188.47;5072823;28;20064;-91
2023/10/01 01:23:19;;;;;;;11.05;4.47;;;;;;;-143.29;100.00;62188.47;5072556;28;20059;-91
2023/10/01 01:25:45;;;;;;;8.65;3.28;;;;;;;-143.29;100.00;62188.47;5054797;28;20103;-91
2023/10/01 01:28:23;;;;;;;10.23;4.22;;;;;;;-143.29;100.00;62188.47;5072769;28;20024;-90
2023/10/01 01:30:50;;;;;;;10.63;4.38;;;;;;;-143.29;100.00;62188.47;5072607;28;20033;-91
2023/10/01 01:33:21;;;;;;;9.35;4.18;;;;;;;-143.29;100.00;62188.47;5072571;28;20028;-91
2023/10/01 01:35:50;;;;;;;12.15;4.82;;;;;;;-143.29;100.00;62188.47;5072445;28;20364;-91
2023/10/01 01:38:16;;;;;;;6.35;2.85;;;;;;;-143.29;100.00;62188.47;5072519;28;20021;-91
2023/10/01 01:40:42;;;;;;;8.70;3.70;;;;;;;-143.29;100.00;62188.47;5072454;28;20077;-90
2023/10/01 01:43:21;;;;;;;6.90;3.25;;;;;;;-143.29;100.00;62188.47;5054517;28;20229;-92
2023/10/01 01:45:54;;;;;;;8.70;3.47;;;;;;;-143.29;100.00;62188.47;5054473;28;20027;-92
2023/10/01 01:48:25;;;;;;;10.43;4.15;;;;;;;-143.29;100.00;62188.47;5072327;28;20070;-91
2023/10/01 01:50:54;;;;;;;7.32;3.72;;;;;;;-143.29;100.00;62188.47;5072070;28;20409;-91
2023/10/01 01:53:20;;;;;;;7.25;3.28;;;;;;;-143.29;100.00;62188.47;5072403;28;20071;-91
2023/10/01 01:55:47;;;;;;;7.78;3.33;;;;;;;-143.29;100.00;62188.47;5054545;28;20454;-90
2023/10/01 01:58:15;;;;;;;13.43;3.58;;;;;;;-143.29;100.00;62188.47;5071957;28;20035;-91
2023/10/01 02:03:26;;;;;;;7.07;3.08;;;;;;;-143.29;100.00;62188.47;5072192;28;20129;-91
2023/10/01 02:05:52;;;;;;;7.30;2.97;;;;;;;-143.29;100.00;62188.47;5072266;28;20073;-90
2023/10/01 02:08:24;;;;;;;6.40;3.35;;;;;;;-143.29;100.00;62188.47;5072067;28;20167;-91
2023/10/01 02:10:55;;;;;;;6.25;2.80;;;;;;;-143.29;100.00;62188.47;5053701;28;20029;-91
2023/10/01 02:13:25;;;;;;;5.60;2.45;;;;;;;-143.29;100.00;62188.47;5071891;28;20029;-90
2023/10/01 02:15:51;;;;;;;4.72;2.53;;;;;;;-143.29;100.00;62188.47;5053980;28;20074;-91
2023/10/01 02:18:17;;;;;;;5.45;2.53;;;;;;;-143.29;100.00;62188.47;5071996;28;20027;-90
2023/10/01 02:20:56;;;;;;;7.38;2.78;;;;;;;-143.29;100.00;62188.47;5072116;28;20029;-90
2023/10/01 02:23:26;;;;;;;5.60;2.55;;;;;;;-143.29;100.00;62188.47;5071373;28;20623;-91
2023/10/01 02:25:57;;;;;;;5.45;2.75;;;;;;;-143.29;100.00;62188.47;5070177;28;20478;-90
2023/10/01 02:28:25;;;;;;;8.00;2.95;;;;;;;-143.29;100.00;62188.47;5052036;28;20036;-91
2023/10/01 02:30:57;;;;;;;9.00;2.88;;;;;;;-143.29;100.00;62188.47;5033949;28;20521;-90
2023/10/01 02:33:24;;;;;;;6.55;2.83;;;;;;;-143.29;100.00;62188.47;5051666;28;20043;-90
2023/10/01 02:35:55;;;;;;;8.50;3.25;;;;;;;-143.29;100.00;62188.47;5033906;28;20029;-91
2023/10/01 02:38:37;;;;;;;6.37;2.63;;;;;;;-143.29;100.00;62188.47;5051740;28;20107;-91
2023/10/01 02:41:08;;;;;;;4.82;2.10;;;;;;;-143.29;100.00;62188.47;5033595;28;20025;-90
2023/10/01 02:43:34;;;;;;;5.30;2.55;;;;;;;-143.29;100.00;62188.47;5051738;28;20086;-91
2023/10/01 02:46:11;;;;;;;5.55;2.15;;;;;;;-143.29;100.00;62188.47;5051736;28;20086;-90
2023/10/01 02:48:40;;;;;;;3.88;2.00;;;;;;;-143.29;100.00;62188.47;5051421;28;20025;-90
2023/10/01 02:51:14;;;;;;;4.65;1.52;;;;;;;-143.29;100.00;62188.47;5033573;28;20125;-91
2023/10/01 02:54:01;;;;;;;4.28;2.00;;;;;;;-143.29;100.00;62188.47;5051519;28;20021;-91
2023/10/01 02:56:37;;;;;;;4.78;2.20;;;;;;;-143.29;100.00;62188.47;5033659;28;20021;-91
2023/10/01 02:59:13;;;;;;;4.57;2.10;;;;;;;-143.29;100.00;62188.47;5051535;28;20056;-90
2023/10/01 03:01:42;;;;;;;4.75;1.77;;;;;;;-143.29;100.00;62188.47;5033563;28;20047;-91
2023/10/01 03:04:17;;;;;;;2.95;1.63;;;;;;;-143.29;100.00;62188.47;5051369;28;20017;-90
2023/10/01 03:06:56;;;;;;;3.28;1.65;;;;;;;-143.29;100.00;62188.47;5051478;28;20025;-91
2023/10/01 03:09:29;;;;;;;4.28;2.13;;;;;;;-143.29;100.00;62188.47;5051360;28;20017;-91
2023/10/01 03:12:23;;;;;;;4.07;1.45;;;;;;;-143.29;100.00;62188.47;5051183;28;20992;-91
2023/10/01 03:14:43;;;;;;;2.72;1.13;;;;;;;-143.29;100.00;62188.47;5051063;28;20029;-92
2023/10/01 03:17:17;;;;;;;4.53;1.73;;;;;;;-143.29;100.00;62188.47;5051413;28;20475;-91
2023/10/01 03:19:46;;;;;;;2.92;1.33;;;;;;;-143.29;100.00;62188.47;5051153;28;20513;-90
2023/10/01 03:22:22;;;;;;;2.92;1.60;;;;;;;-143.29;100.00;62188.47;5033321;28;20130;-91
2023/10/01 03:24:48;;;;;;;4.07;1.85;;;;;;;-143.29;100.00;62188.47;5033458;28;20061;-90
2023/10/01 03:27:19;;;;;;;4.10;1.50;;;;;;;-143.29;100.00;62188.47;5051180;28;20147;-90
2023/10/01 03:29:45;;;;;;;4.28;1.70;;;;;;;-143.29;100.00;62188.47;5051156;28;20082;-90
2023/10/01 03:32:29;;;;;;;2.80;1.60;;;;;;;-143.29;100.00;62188.47;5051088;28;20029;-91
2023/10/01 03:35:07;;;;;;;3.10;1.38;;;;;;;-143.29;100.00;62188.47;5051667;28;20025;-90
2023/10/01 03:37:38;;;;;;;5.47;1.95;;;;;;;-143.29;100.00;62188.47;5054955;28;20234;-91
2023/10/01 03:40:18;;;;;;;6.07;1.97;;;;;;;-143.29;100.00;62188.47;5054963;28;20059;-91
2023/10/01 03:42:51;;;;;;;5.65;1.83;;;;;;;-143.29;100.00;62188.47;5054521;28;20044;-91
2023/10/01 03:47:43;;;;;;;3.42;1.70;;;;;;;-143.29;100.00;62188.47;5054739;28;20301;-91
2023/10/01 03:50:09;;;;;;;5.50;2.05;;;;;;;-143.29;100.00;62188.47;5054549;28;20452;-91
2023/10/01 03:52:40;;;;;;;4.10;1.92;;;;;;;-143.29;100.00;62188.47;5054544;28;20063;-91
2023/10/01 04:00:33;;;;;;;5.43;1.95;;;;;;;-143.29;100.00;62188.47;5054767;28;20099;-90
2023/10/01 04:03:00;;;;;;;4.35;1.98;;;;;;;-143.29;100.00;62188.47;5052421;28;20033;-90
2023/10/01 04:05:30;;;;;;;4.32;2.10;;;;;;;-143.29;100.00;62188.47;5053949;28;20089;-90
2023/10/01 04:08:04;;;;;;;4.68;2.00;;;;;;;-143.29;100.00;62188.47;5036338;28;20155;-90
2023/10/01 04:10:31;;;;;;;5.22;1.77;;;;;;;-143.29;100.00;62188.47;5054034;28;20033;-91
2023/10/01 04:13:12;;;;;;;4.35;1.98;;;;;;;-143.29;100.00;62188.47;5053909;28;20036;-90
2023/10/01 04:15:41;;;;;;;2.55;1.90;;;;;;;-143.29;100.00;62188.47;5054230;28;20051;-91
2023/10/01 04:20:47;;;;;;;4.63;2.33;;;;;;;-143.29;100.00;62188.47;5053966;28;20127;-90
2023/10/01 04:23:21;;;;;;;2.83;1.80;;;;;;;-143.29;100.00;62188.47;5035909;28;20047;-90
2023/10/01 04:25:47;;;;;;;3.15;1.50;;;;;;;-143.29;100.00;62188.47;5053820;28;20068;-90
2023/10/01 04:28:12;;;;;;;3.80;1.85;;;;;;;-143.29;100.00;62188.47;5054350;28;20045;-90
2023/10/01 04:30:44;;;;;;;3.50;1.52;;;;;;;-143.29;100.00;62188.47;5053744;28;20522;-91
2023/10/01 04:33:22;;;;;;;3.40;1.67;;;;;;;-143.29;100.00;62188.47;5053045;28;20183;-90
2023/10/01 04:35:51;;;;;;;3.97;1.77;;;;;;;-143.29;100.00;62188.47;5053679;28;20025;-90
2023/10/01 04:38:20;;;;;;;2.67;1.42;;;;;;;-143.29;100.00;62188.47;5053441;28;20549;-89
2023/10/01 04:40:48;;;;;;;4.07;1.63;;;;;;;-143.29;100.00;62188.47;5035726;28;20036;-90
2023/10/01 04:43:16;;;;;;;2.97;1.58;;;;;;;-143.29;100.00;62188.47;5035546;28;20024;-90
2023/10/01 04:45:44;;;;;;;2.95;1.83;;;;;;;-143.29;100.00;62188.47;5053006;28;20017;-91
2023/10/01 04:48:15;;;;;;;2.13;1.27;;;;;;;-143.29;100.00;62188.47;5034644;28;20029;-90
2023/10/01 04:50:42;;;;;;;;;;;;;;;-143.29;100.00;62188.47;5053847;28;20498;-90
2023/10/01 04:53:07;;;;;;;3.08;1.20;;;;;;;-143.29;100.00;62188.47;5053108;28;19913;-90
2023/10/01 04:55:41;;;;;;;5.75;1.90;;;;;;;-143.29;100.00;62188.47;5053335;28;20441;-89
2023/10/01 04:58:07;;;;;;;2.30;1.65;;;;;;;-143.29;100.00;62188.47;5052387;28;20033;-91
2023/10/01 05:00:34;;;;;;;3.15;1.65;;;;;;;-143.29;100.00;62188.47;5053004;28;20099;-91
2023/10/01 05:03:03;;;;;;;4.68;1.98;;;;;;;-143.29;100.00;62188.47;5035496;28;20142;-91
2023/10/01 05:05:28;;;;;;;3.90;1.88;;;;;;;-143.29;100.00;62188.47;5035349;28;20125;-91
2023/10/01 05:07:57;;;;;;;4.25;2.13;;;;;;;-143.29;100.00;62188.47;5053176;28;20447;-91
2023/10/01 05:10:26;;;;;;;4.50;1.88;;;;;;;-143.29;100.00;62188.47;5052773;28;20029;-91
2023/10/01 05:12:58;;;;;;;3.83;1.77;;;;;;;-143.29;100.00;62188.47;5052927;28;20029;-91
2023/10/01 05:15:32;;;;;;;4.32;2.33;;;;;;;-143.29;100.00;62188.47;5052995;28;20017;-91
2023/10/01 05:17:59;;;;;;;5.40;2.17;;;;;;;-143.29;100.00;62188.47;5035076;28;20025;-91
2023/10/01 05:20:28;;;;;;;5.07;2.20;;;;;;;-143.29;100.00;62188.47;5053002;28;20063;-91
2023/10/01 05:22:57;;;;;;;7.20;2.15;;;;;;;-143.29;100.00;62188.47;5052763;28;20063;-91
2023/10/01 05:25:26;;;;;;;3.55;1.92;;;;;;;-143.29;100.00;62188.47;5052701;28;20025;-91
2023/10/01 05:27:56;;;;;;;4.45;1.98;;;;;;;-143.29;100.00;62188.47;5034878;28;20024;-91
2023/10/01 05:30:42;;;;;;;5.63;2.60;;;;;;;-143.29;100.00;62188.47;5034759;28;20017;-91
2023/10/01 05:33:11;;;;;;;4.88;2.20;;;;;;;-143.29;100.00;62188.47;5052563;28;20017;-91
2023/10/01 05:35:47;;;;;;;5.13;2.20;;;;;;;-143.29;100.00;62188.47;5052450;28;20049;-91
2023/10/01 05:38:14;;;;;;;7.20;2.88;;;;;;;-143.29;100.00;62188.47;5052619;28;20025;-92
2023/10/01 05:40:40;;;;;;;4.65;2.45;;;;;;;-143.29;100.00;62188.47;5034783;28;20063;-92
2023/10/01 05:43:13;;;;;;;6.45;2.85;;;;;;;-143.29;100.00;62188.47;5052161;28;20515;-91
2023/10/01 05:45:41;;;;;;;8.82;2.67;;;;;;;-143.29;100.00;62188.47;5034591;28;20027;-91
2023/10/01 05:48:10;;;;;;;6.93;3.13;;;;;;;-143.29;100.00;62188.47;5034537;28;20025;-91
2023/10/01 05:50:41;;;;;;;10.57;3.25;;;;;;;-143.29;100.00;62188.47;5034455;28;20285;-91
2023/10/01 05:53:09;;;;;;;7.00;3.47;;;;;;;-143.29;100.00;62188.47;5052263;28;20032;-91
2023/10/01 05:55:35;;;;;;;7.05;3.17;;;;;;;-143.29;100.00;62188.47;5052219;28;20077;-91
2023/10/01 05:58:21;;;;;;;10.80;3.67;;;;;;;-143.29;100.00;62188.47;5051500;28;20025;-91
2023/10/01 06:00:56;;;;;;;10.80;4.00;;;;;;;-143.29;100.00;62188.47;5051623;28;20044;-91
2023/10/01 06:03:26;;;;;;;9.85;3.95;;;;;;;-143.29;100.00;62188.47;5052118;28;20029;-91
2023/10/01 06:05:58;;;;;;;8.82;3.40;;;;;;;-143.29;100.00;62188.47;5051842;28;20021;-91
2023/10/01 06:08:32;;;;;;;9.80;3.70;;;;;;;-143.29;100.00;62188.47;5052084;28;20029;-91
2023/10/01 06:11:03;;;;;;;5.15;3.05;;;;;;;-143.29;100.00;62188.47;5051930;28;20032;-91
2023/10/01 06:13:29;;;;;;;11.13;5.18;;;;;;;-143.29;100.00;62188.47;5050851;28;20021;-90
2023/10/01 06:15:58;;;;;;;7.55;3.22;;;;;;;-143.29;100.00;62188.47;5051815;28;20383;-91
2023/10/01 06:18:26;;;;;;;8.40;4.03;;;;;;;-143.29;100.00;62188.47;5051663;28;20025;-91
2023/10/01 06:20:51;;;;;;;9.68;4.10;;;;;;;-143.29;100.00;62188.47;5051850;28;20087;-90
2023/10/01 06:23:17;;;;;;;10.45;4.05;;;;;;;-143.29;100.00;62188.47;5051697;28;20044;-91
2023/10/01 06:25:47;;;;;;;7.97;3.67;;;;;;;-143.29;100.00;62188.47;5051807;28;20017;-92
2023/10/01 06:28:20;;;;;;;6.93;3.67;;;;;;;-143.29;100.00;62188.47;5051753;28;20040;-92
2023/10/01 06:30:48;;;;;;;13.80;4.10;;;;;;;-143.29;100.00;62188.47;5051833;28;20068;-91
2023/10/01 06:33:25;;;;;;;12.13;3.33;;;;;;;-143.29;100.00;62188.47;5051795;28;20025;-91
2023/10/01 06:38:39;;;;;;;10.45;2.83;;;;;;;-143.29;100.00;62188.47;5051838;28;20489;-91
2023/10/01 06:41:06;;;;;;;10.43;3.40;;;;;;;-143.29;100.00;62188.47;5051532;28;20033;-91
2023/10/01 06:43:48;;;;;;;8.88;3.58;;;;;;;-143.29;100.00;62188.47;5051421;28;20049;-91
2023/10/01 06:46:17;;;;;;;7.05;3.33;;;;;;;-143.29;100.00;62188.47;5033768;28;20043;-91
2023/10/01 06:48:43;;;;;;;6.30;3.58;;;;;;;-143.29;100.00;62188.47;5033840;28;20051;-92
2023/10/01 06:51:08;;;;;;;9.77;3.30;;;;;;;-143.29;100.00;62188.47;5051460;28;20609;-91
2023/10/01 06:53:47;;;;;;;8.85;4.00;;;;;;;-143.29;100.00;62188.47;5051419;28;20391;-92
2023/10/01 06:56:17;;;;;;;11.07;3.40;;;;;;;-143.29;100.00;62188.47;5049872;28;20115;-91
2023/10/01 07:01:49;;;;;;;9.07;3.47;;;;;;;-143.29;100.00;62188.47;4970339;28;20023;-91
2023/10/01 07:04:18;;;;;;;8.80;3.40;;;;;;;-143.29;100.00;62188.47;5020749;28;20049;-91
2023/10/01 07:06:50;;;;;;;8.15;3.22;;;;;;;-143.29;100.00;62188.47;5031649;28;20032;-90
2023/10/01 07:09:32;;;;;;;10.60;2.72;;;;;;;-143.29;100.00;62188.47;5014740;28;20044;-90
2023/10/01 07:11:59;;;;;;;9.55;3.13;;;;;;;-143.29;100.00;62188.47;5035229;28;20493;-91
2023/10/01 07:14:44;;;;;;;6.90;2.97;;;;;;;-143.29;100.00;62188.47;5035328;28;20108;-91
2023/10/01 07:17:15;;;;;;;5.65;2.47;;;;;;;-143.29;100.00;62188.47;5017450;28;20056;-92
2023/10/01 07:19:43;;;;;;;6.82;2.80;;;;;;;-143.29;100.00;62188.47;5035088;28;20029;-91
2023/10/01 07:22:24;;;;;;;6.00;2.50;;;;;;;-143.29;100.00;62188.47;5034776;28;20025;-91
2023/10/01 07:24:50;;;;;;;7.68;2.42;;;;;;;-143.29;100.00;62188.47;5034408;28;20018;-91
2023/10/01 07:27:17;;;;;;;10.65;2.38;;;;;;;-143.29;100.00;62188.47;5035073;28;20026;-91
2023/10/01 07:29:43;;;;;;;7.10;2.65;;;;;;;-143.29;100.00;62188.47;5034923;28;20052;-92
2023/10/01 07:32:14;;;;;;;5.22;2.47;;;;;;;-143.29;100.00;62188.47;5036262;28;20480;-92
2023/10/01 07:34:45;;;;;;;8.07;3.40;;;;;;;-143.29;100.00;62188.47;5034736;28;20061;-91
2023/10/01 07:37:10;;;;;;;4.87;2.13;;;;;;;-143.29;100.00;62188.47;5034800;28;20270;-91
2023/10/01 07:39:37;;;;;;;5.00;2.55;;;;;;;-143.29;100.00;62188.47;5034244;28;20382;-91
2023/10/01 07:42:10;;;;;;;5.07;2.28;;;;;;;-143.29;100.00;62188.47;5034698;28;20396;-91
2023/10/01 07:44:36;;;;;;;4.90;2.00;;;;;;;-143.29;100.00;62188.47;5016771;28;20026;-90
2023/10/01 07:47:06;;;;;;;7.55;2.67;;;;;;;-143.29;100.00;62188.47;5034462;28;20052;-91
2023/10/01 07:49:46;;;;;;;6.82;2.20;;;;;;;-143.29;100.00;62188.47;5034495;28;20052;-90
2023/10/01 07:52:17;;;;;;;5.60;2.00;;;;;;;-143.29;100.00;62188.47;5034420;28;20029;-90
2023/10/01 07:54:44;;;;;;;6.38;2.55;;;;;;;-143.29;100.00;62188.47;5033871;28;20109;-91
2023/10/01 07:57:13;;;;;;;5.28;2.70;;;;;;;-143.29;100.00;62188.47;5033333;28;20360;-92
2023/10/01 07:59:43;;;;;;;7.57;2.38;;;;;;;-143.29;100.00;62188.47;5034149;28;20439;-94
2023/10/01 08:02:13;;;;;;;5.10;2.42;;;;;;;-143.29;100.00;62188.47;5034335;28;20392;-92
2023/10/01 08:07:18;;;;;;;8.98;2.90;;;;;;;-143.29;100.00;62188.47;5034221;28;20083;-92
2023/10/01 08:10:04;;;;;;;6.18;2.60;;;;;;;-143.29;100.00;62188.47;5033762;28;20529;-95
2023/10/01 08:13:04;;;;;;;10.48;3.47;;;;;;;-143.29;100.00;62188.47;5034093;28;20022;-90
2023/10/01 08:15:29;;;;;;;9.70;3.55;;;;;;;-143.29;100.00;62188.47;5033779;28;20029;-91
2023/10/01 08:21:02;;;;;;;6.45;2.95;;;;;;;-143.29;100.00;62188.47;5033232;28;20028;-90
2023/10/01 08:23:30;;;;;;;10.52;3.42;;;;;;;-143.29;100.00;62188.47;5034159;28;20478;-91
2023/10/01 08:25:56;;;;;;;9.10;3.15;;;;;;;-143.29;100.00;62188.47;5015346;28;20479;-94
2023/10/01 08:30:49;;;;;;;6.82;2.90;;;;;;;-143.29;100.00;62188.47;5033836;28;20504;-93
2023/10/01 08:33:32;;;;;;;7.75;3.10;;;;;;;-143.29;100.00;62188.47;5034033;28;20082;-91
2023/10/01 08:36:01;;;;;;;9.05;2.97;;;;;;;-143.29;100.00;62188.47;5033521;28;20025;-93
2023/10/01 08:38:34;;;;;;;8.32;3.30;;;;;;;-143.29;100.00;62188.47;5015994;28;20128;-92
2023/10/01 08:41:03;;;;;;;10.88;3.03;;;;;;;-143.29;100.00;62188.47;5033116;28;20022;-90
2023/10/01 08:43:35;;;;;;;6.82;2.95;;;;;;;-143.29;100.00;62188.47;5033729;28;20026;-91
2023/10/01 08:46:31;;;;;;;5.85;3.38;;;;;;;-143.29;100.00;62188.47;5033438;28;20034;-90
2023/10/01 08:49:18;;;;;;;6.57;2.63;;;;;;;-143.29;100.00;62188.47;5032450;28;20561;-92
2023/10/01 08:51:43;;;;;;;6.70;2.72;;;;;;;-143.29;100.00;62188.47;5033016;28;20072;-91
2023/10/01 08:54:14;;;;;;;9.07;3.25;;;;;;;-143.29;100.00;62188.47;5032616;28;20545;-91
2023/10/01 08:56:43;;;;;;;6.70;2.22;;;;;;;-143.29;100.00;62188.47;5033588;28;20266;-90
2023/10/01 08:59:23;;;;;;;16.35;3.25;;;;;;;-143.29;100.00;62188.47;5033279;28;20022;-90
2023/10/01 09:01:55;;;;;;;8.80;2.78;;;;;;;-143.29;100.00;62188.47;5033183;28;20017;-89
2023/10/01 09:04:44;;;;;;;;;;;;;;;-143.29;100.00;62188.47;5033513;28;20036;-89
2023/10/01 09:07:18;;;;;;;6.65;3.15;;;;;;;-143.29;100.00;62188.47;5033275;28;19980;-89
2023/10/01 09:10:09;;;;;;;9.65;2.72;;;;;;;-143.29;100.00;62188.47;5032571;28;20029;-90
2023/10/01 09:12:35;;;;;;;11.48;3.35;;;;;;;-143.29;100.00;62188.47;5032737;28;20476;-89
2023/10/01 09:15:05;;;;;;;8.88;2.92;;;;;;;-143.29;100.00;62188.47;5033266;28;20025;-91
2023/10/01 09:17:44;;;;;;;6.13;3.10;;;;;;;-143.29;100.00;62188.47;5032975;28;20029;-89
2023/10/01 09:20:17;;;;;;;8.00;2.72;;;;;;;-143.29;100.00;62188.47;5032768;28;20304;-89
2023/10/01 09:22:59;;;;;;;8.43;3.30;;;;;;;-143.29;100.00;62188.47;5032653;28;20392;-88
2023/10/01 09:25:30;;;;;;;9.68;2.97;;;;;;;-143.29;100.00;62188.47;5032106;28;20017;-91
2023/10/01 09:28:04;;;;;;;9.77;2.97;;;;;;;-143.29;100.00;62188.47;5032823;28;20430;-91
2023/10/01 09:30:35;;;;;;;8.60;2.92;;;;;;;-143.29;100.00;62188.47;5015072;28;20564;-90
2023/10/01 09:33:14;;;;;;;9.15;3.08;;;;;;;-143.29;100.00;62188.47;5032756;28;20033;-91
2023/10/01 09:35:49;;;;;;;7.75;2.78;;;;;;;-143.29;100.00;62188.47;5014753;28;20044;-92
2023/10/01 09:38:18;;;;;;;6.88;2.75;;;;;;;-143.29;100.00;62188.47;5017100;28;20183;-90
2023/10/01 09:40:46;;;;;;;9.10;3.95;;;;;;;-143.29;100.00;62188.47;5051329;28;20537;-92
2023/10/01 09:43:18;;;;;;;5.13;2.88;;;;;;;-143.29;100.00;62188.47;5052259;28;20025;-90
2023/10/01 09:45:48;;;;;;;7.30;2.63;;;;;;;-143.29;100.00;62188.47;5051696;28;20054;-90
2023/10/01 09:48:35;;;;;;;6.38;2.70;;;;;;;-143.29;100.00;62188.47;5049076;28;20021;-89
2023/10/01 09:51:08;;;;;;;7.00;2.90;;;;;;;-143.29;100.00;62188.47;5051213;28;20051;-90
2023/10/01 09:54:00;;;;;;;6.20;2.55;;;;;;;-143.29;100.00;62188.47;5051605;28;20091;-90
2023/10/01 09:56:26;;;;;;;6.72;2.83;;;;;;;-143.29;100.00;62188.47;5050128;28;20036;-89
2023/10/01 09:59:11;;;;;;;6.07;2.70;;;;;;;-143.29;100.00;62188.47;5071594;28;20491;-91
2023/10/01 10:01:40;;;;;;;8.93;2.53;;;;;;;-143.29;100.00;62188.47;5066406;28;20057;-91
2023/10/01 10:04:08;;;;;;;5.60;2.40;;;;;;;-143.29;100.00;62188.47;5032005;28;20047;-94
2023/10/01 10:06:35;;;;;;;5.78;2.30;;;;;;;-143.29;100.00;62188.47;5021995;28;20036;-89
2023/10/01 10:09:03;;;;;;;6.63;2.25;;;;;;;-143.29;100.00;62188.47;5048398;28;20029;-90
2023/10/01 10:11:43;;;;;;;8.05;2.78;;;;;;;-143.29;100.00;62188.47;5048433;28;20126;-89
2023/10/01 10:14:27;;;;;;;5.25;2.35;;;;;;;-143.29;100.00;62188.47;5050662;28;20020;-91
2023/10/01 10:17:27;;;;;;;5.75;2.03;;;;;;;-143.29;100.00;62188.47;5050952;28;20042;-89
2023/10/01 10:20:26;;;;;;;7.20;2.92;;;;;;;-143.29;100.00;62188.47;5049188;28;20041;-90
2023/10/01 10:23:16;;;;;;;7.03;3.17;;;;;;;-143.29;100.00;62188.47;5050505;28;20522;-87
2023/10/01 10:25:43;;;;;;;12.35;3.10;;;;;;;-143.29;100.00;62188.47;5032883;28;20067;-89
2023/10/01 10:28:09;;;;;;;7.90;3.35;;;;;;;-143.29;100.00;62188.47;5046882;28;20044;-88
2023/10/01 10:30:40;;;;;;;5.75;2.50;;;;;;;-143.29;100.00;62188.47;5050204;28;20029;-89
2023/10/01 10:33:15;;;;;;;7.95;2.85;;;;;;;-143.29;100.00;62188.47;5050368;28;20037;-90
2023/10/01 10:35:49;;;;;;;6.13;2.83;;;;;;;-143.29;100.00;62188.47;5042075;28;20395;-89
2023/10/01 10:38:51;;;;;;;5.72;2.55;;;;;;;-143.29;100.00;62188.47;5050528;28;20475;-89
2023/10/01 10:41:17;;;;;;;9.10;2.55;;;;;;;-143.29;100.00;62188.47;5051044;28;20534;-90
2023/10/01 10:44:08;;;;;;;7.55;2.40;;;;;;;-143.29;100.00;62188.47;5050778;28;20377;-89
2023/10/01 10:47:12;;;;;;;8.82;2.95;;;;;;;-143.29;100.00;62188.47;5051250;28;20020;-89
2023/10/01 10:49:50;;;;;;;6.53;2.20;;;;;;;-143.29;100.00;62188.47;5049627;28;20060;-89
2023/10/01 10:52:32;;;;;;;5.53;2.28;;;;;;;-143.29;100.00;62188.47;5050868;28;20112;-90
2023/10/01 10:55:16;;;;;;;7.57;2.55;;;;;;;-143.29;100.00;62188.47;5050608;28;20021;-89
2023/10/01 10:57:49;;;;;;;7.75;2.15;;;;;;;-143.29;100.00;62188.47;5051188;28;20048;-89
2023/10/01 11:00:24;;;;;;;7.55;2.40;;;;;;;-143.29;100.00;62188.47;5067959;28;20036;-90
2023/10/01 11:02:56;;;;;;;7.97;2.38;;;;;;;-143.29;100.00;62188.47;5039567;28;20032;-90
2023/10/01 11:05:49;;;;;;;5.68;2.30;;;;;;;-143.29;100.00;62188.47;5065054;28;20137;-91
2023/10/01 11:08:27;;;;;;;4.97;1.60;;;;;;;-143.29;100.00;62188.47;5058803;28;20123;-91
2023/10/01 11:10:54;;;;;;;5.38;1.95;;;;;;;-143.29;100.00;62188.47;5050780;28;20025;-90
2023/10/01 11:13:40;;;;;;;7.00;2.53;;;;;;;-143.29;100.00;62188.47;5051143;28;20033;-90
2023/10/01 11:16:15;;;;;;;5.72;2.08;;;;;;;-143.29;100.00;62188.47;5062221;28;20029;-90
2023/10/01 11:18:44;;;;;;;6.07;2.00;;;;;;;-143.29;100.00;62188.47;5069920;28;20020;-89
2023/10/01 11:21:20;;;;;;;5.45;2.25;;;;;;;-143.29;100.00;62188.47;5050924;28;20498;-88
2023/10/01 11:23:55;;;;;;;5.93;2.30;;;;;;;-143.29;100.00;62188.47;5048099;28;20021;-90
2023/10/01 11:26:27;;;;;;;8.43;2.40;;;;;;;-143.29;100.00;62188.47;5047746;28;20036;-90
2023/10/01 11:29:11;;;;;;;6.15;2.38;;;;;;;-143.29;100.00;62188.47;5032860;28;20071;-89
2023/10/01 11:31:38;;;;;;;5.32;2.45;;;;;;;-143.29;100.00;62188.47;5050812;28;20034;-90
2023/10/01 11:34:21;;;;;;;6.63;2.30;;;;;;;-143.29;100.00;62188.47;5032859;28;20021;-89
2023/10/01 11:36:56;;;;;;;4.95;2.20;;;;;;;-143.29;100.00;62188.47;5051122;28;20037;-90
2023/10/01 11:39:49;;;;;;;5.25;2.10;;;;;;;-143.29;100.00;62188.47;5050236;28;20032;-90
2023/10/01 11:42:26;;;;;;;5.47;1.80;;;;;;;-143.29;100.00;62188.47;5030610;28;20501;-91
2023/10/01 11:44:52;;;;;;;3.97;2.13;;;;;;;-143.29;100.00;62188.47;5031627;28;20029;-91
2023/10/01 11:47:31;;;;;;;6.35;2.42;;;;;;;-143.29;100.00;62188.47;5049851;28;20021;-91
2023/10/01 11:50:07;;;;;;;7.40;2.00;;;;;;;-143.29;100.00;62188.47;5049309;28;20033;-90
2023/10/01 11:52:33;;;;;;;4.78;2.25;;;;;;;-143.29;100.00;62188.47;5047216;28;20410;-87
2023/10/01 11:54:59;;;;;;;5.53;2.33;;;;;;;-143.29;100.00;62188.47;5048386;28;20086;-89
2023/10/01 11:57:31;;;;;;;4.90;2.00;;;;;;;-143.29;100.00;62188.47;5055652;28;20021;-89
2023/10/01 11:59:58;;;;;;;4.10;1.80;;;;;;;-143.29;100.00;62188.47;5052725;28;20024;-90
2023/10/01 12:02:43;;;;;;;6.43;2.72;;;;;;;-143.29;100.00;62188.47;5048722;28;20410;-90